Time;durP1;ratioP1;P1;durP2;ratioP2;P2;SDS_P1;SDS_P2;PMS_P1;PMS_P2;Temp;Humidity;BMP_temperature;BMP_pressure;BME280_temperature;BME280_humidity;BME280_pressure;Samples;Min_cycle;Max_cycle;Signal;HPM_P1;HPM_P2
2023/03/27 00:02:19;;;;;;;14.27;1.80;;;6.80;99.90;;;;;;4934246;29;20396;-70
2023/03/27 00:04:45;;;;;;;10.52;2.13;;;6.80;99.90;;;;;;4927374;29;20047;-70
2023/03/27 00:07:11;;;;;;;11.85;2.08;;;6.70;99.90;;;;;;4931513;29;20035;-71
2023/03/27 00:09:38;;;;;;;19.13;2.40;;;6.70;99.90;;;;;;4930088;28;20058;-70
2023/03/27 00:12:05;;;;;;;12.30;1.77;;;6.70;99.90;;;;;;4932111;29;20063;-70
2023/03/27 00:14:30;;;;;;;16.45;3.38;;;6.70;99.90;;;;;;4927257;29;20093;-70
2023/03/27 00:16:58;;;;;;;12.32;2.45;;;6.70;99.90;;;;;;4930286;29;20541;-70
2023/03/27 00:19:25;;;;;;;9.75;2.20;;;6.80;99.90;;;;;;4931042;29;20053;-70
2023/03/27 00:21:53;;;;;;;12.30;1.80;;;6.70;99.90;;;;;;4929938;29;20072;-71
2023/03/27 00:24:19;;;;;;;10.90;2.55;;;6.70;99.90;;;;;;4933431;29;20130;-71
2023/03/27 00:26:45;;;;;;;10.93;2.40;;;6.70;99.90;;;;;;4930733;29;20525;-69
2023/03/27 00:29:12;;;;;;;12.05;2.53;;;6.70;99.90;;;;;;4930541;29;20020;-70
2023/03/27 00:31:38;;;;;;;13.77;2.50;;;6.70;99.90;;;;;;4933735;29;20027;-70
2023/03/27 00:34:03;;;;;;;14.25;2.45;;;6.70;99.90;;;;;;4930735;29;20024;-69
2023/03/27 00:36:30;;;;;;;12.57;2.40;;;6.80;99.90;;;;;;4931637;29;20088;-70
2023/03/27 00:38:56;;;;;;;8.13;1.95;;;6.80;99.90;;;;;;4929784;29;20370;-70
2023/03/27 00:41:22;;;;;;;8.25;2.33;;;6.80;99.90;;;;;;4933951;29;20034;-71
2023/03/27 00:43:51;;;;;;;6.15;1.95;;;6.80;99.90;;;;;;4932471;29;20032;-69
2023/03/27 00:46:48;;;;;;;11.80;2.20;;;6.90;99.90;;;;;;4936770;29;20055;-70
2023/03/27 00:49:15;;;;;;;9.60;2.17;;;6.80;99.90;;;;;;4937729;29;20027;-71
2023/03/27 00:51:43;;;;;;;8.10;2.03;;;6.70;99.90;;;;;;4933555;29;20096;-71
2023/03/27 00:54:11;;;;;;;14.43;2.65;;;6.80;99.90;;;;;;4936176;29;20020;-71
2023/03/27 00:56:37;;;;;;;8.27;2.00;;;6.80;99.90;;;;;;4936157;28;20472;-70
2023/03/27 00:59:09;;;;;;;12.15;2.92;;;6.90;99.90;;;;;;4932433;29;20036;-71
2023/03/27 01:01:35;;;;;;;10.27;1.92;;;6.90;99.90;;;;;;4932376;29;20047;-71
2023/03/27 01:04:05;;;;;;;15.65;2.28;;;6.90;99.90;;;;;;4926622;29;20392;-70
2023/03/27 01:06:31;;;;;;;10.45;2.60;;;6.90;99.90;;;;;;4936333;29;20404;-70
2023/03/27 01:08:57;;;;;;;11.20;2.97;;;6.90;99.90;;;;;;4933113;29;20050;-70
2023/03/27 01:11:43;;;;;;;12.05;3.10;;;7.00;99.90;;;;;;4931043;29;20469;-73
2023/03/27 01:14:39;;;;;;;11.13;2.47;;;7.10;99.90;;;;;;4928080;29;20059;-72
2023/03/27 01:17:06;;;;;;;19.42;2.53;;;7.10;99.90;;;;;;4932526;29;20035;-72
2023/03/27 01:20:12;;;;;;;8.32;2.28;;;6.90;99.90;;;;;;4935487;28;20027;-72
2023/03/27 01:22:59;;;;;;;10.10;2.72;;;6.90;99.90;;;;;;4930310;29;20036;-74
2023/03/27 01:25:31;;;;;;;18.45;2.70;;;7.00;99.90;;;;;;4931426;29;20035;-73
2023/03/27 01:28:21;;;;;;;9.50;2.40;;;7.00;99.90;;;;;;4932356;29;20417;-72
2023/03/27 01:31:21;;;;;;;12.00;2.42;;;6.90;99.90;;;;;;4927015;29;20051;-72
2023/03/27 01:34:02;;;;;;;10.85;2.15;;;7.00;99.90;;;;;;4936915;29;20490;-73
2023/03/27 01:37:06;;;;;;;8.23;2.40;;;7.00;99.90;;;;;;4933227;29;20027;-73
2023/03/27 01:39:45;;;;;;;11.82;2.65;;;6.90;99.90;;;;;;4942693;28;20047;-73
2023/03/27 01:42:29;;;;;;;9.00;2.38;;;7.00;99.90;;;;;;4934612;29;20023;-72
2023/03/27 01:45:21;;;;;;;10.32;2.72;;;6.90;99.90;;;;;;4928186;29;20028;-72
2023/03/27 01:48:08;;;;;;;13.07;2.10;;;6.90;99.90;;;;;;4934277;29;20076;-73
2023/03/27 01:50:37;;;;;;;7.88;2.08;;;6.90;99.90;;;;;;4935885;29;20331;-73
2023/03/27 01:53:20;;;;;;;11.65;1.98;;;6.90;99.90;;;;;;4934293;29;20090;-72
2023/03/27 01:56:17;;;;;;;14.35;2.20;;;6.80;99.90;;;;;;4932906;29;20481;-72
2023/03/27 01:58:48;;;;;;;15.75;2.17;;;6.90;99.90;;;;;;4927714;29;20035;-72
2023/03/27 02:01:21;;;;;;;9.77;2.58;;;6.90;99.90;;;;;;4931108;29;20470;-73
2023/03/27 02:03:52;;;;;;;9.32;2.10;;;6.80;99.90;;;;;;4927322;29;20032;-72
2023/03/27 02:06:27;;;;;;;12.57;2.20;;;6.90;99.90;;;;;;4929300;29;20031;-72
2023/03/27 02:09:10;;;;;;;11.88;2.33;;;6.80;99.90;;;;;;4934008;29;20123;-72
2023/03/27 02:11:42;;;;;;;11.57;2.28;;;6.80;99.90;;;;;;4932205;29;20115;-72
2023/03/27 02:14:16;;;;;;;9.07;2.05;;;6.90;99.90;;;;;;4931960;29;20020;-72
2023/03/27 02:16:46;;;;;;;8.38;2.67;;;6.80;99.90;;;;;;4929915;29;20032;-72
2023/03/27 02:19:27;;;;;;;11.30;2.50;;;6.90;99.90;;;;;;4932007;29;20393;-72
2023/03/27 02:21:52;;;;;;;9.98;2.63;;;6.90;99.90;;;;;;4929540;29;20039;-73
2023/03/27 02:24:18;;;;;;;8.40;1.95;;;6.90;99.90;;;;;;4926024;29;20028;-72
2023/03/27 02:26:44;;;;;;;13.10;2.20;;;6.80;99.90;;;;;;4928978;29;20535;-72
2023/03/27 02:29:34;;;;;;;7.32;2.53;;;6.90;99.90;;;;;;4936790;29;20380;-73
2023/03/27 02:32:12;;;;;;;12.32;2.40;;;6.90;99.90;;;;;;4931164;28;20102;-72
2023/03/27 02:34:40;;;;;;;8.88;2.53;;;6.90;99.90;;;;;;4928796;29;20484;-72
2023/03/27 02:37:27;;;;;;;9.75;2.05;;;6.90;99.90;;;;;;4927147;29;20092;-72
2023/03/27 02:40:21;;;;;;;4.82;2.33;;;6.90;99.90;;;;;;4932614;29;20040;-74
2023/03/27 02:43:02;;;;;;;12.40;2.30;;;6.90;99.90;;;;;;4931397;29;20099;-72
2023/03/27 02:45:51;;;;;;;9.80;2.30;;;6.90;99.90;;;;;;4923636;29;20047;-72
2023/03/27 02:48:25;;;;;;;11.23;2.60;;;7.00;99.90;;;;;;4930830;29;20016;-72
2023/03/27 02:51:00;;;;;;;8.45;2.22;;;6.90;99.90;;;;;;4931314;29;20067;-72
2023/03/27 02:53:27;;;;;;;5.28;2.30;;;6.90;99.90;;;;;;4930883;29;20016;-72
2023/03/27 02:55:56;;;;;;;9.50;2.67;;;6.90;99.90;;;;;;4926721;29;20036;-72
2023/03/27 02:58:49;;;;;;;12.23;3.13;;;6.80;99.90;;;;;;4926470;29;20051;-73
2023/03/27 03:01:18;;;;;;;8.63;2.28;;;6.90;99.90;;;;;;4928160;29;20063;-72
2023/03/27 03:03:57;;;;;;;9.00;2.70;;;6.90;99.90;;;;;;4934295;29;20060;-72
2023/03/27 03:06:28;;;;;;;13.15;2.72;;;6.90;99.90;;;;;;4933695;29;20043;-73
2023/03/27 03:09:05;;;;;;;8.18;2.42;;;6.90;99.90;;;;;;4924580;29;20023;-72
2023/03/27 03:11:33;;;;;;;14.98;3.15;;;6.80;99.90;;;;;;4932952;29;20425;-72
2023/03/27 03:13:59;;;;;;;11.45;2.45;;;6.80;99.90;;;;;;4930993;29;20036;-72
2023/03/27 03:16:26;;;;;;;15.40;3.00;;;6.80;99.90;;;;;;4926951;29;20024;-72
2023/03/27 03:18:51;;;;;;;11.52;2.83;;;6.80;99.90;;;;;;4934706;29;20469;-72
2023/03/27 03:21:17;;;;;;;18.15;2.53;;;6.80;99.90;;;;;;4932363;29;20063;-72
2023/03/27 03:23:44;;;;;;;8.18;2.45;;;6.70;99.90;;;;;;4924273;29;20040;-72
2023/03/27 03:26:10;;;;;;;7.82;2.40;;;6.70;99.90;;;;;;4928613;29;20016;-72
2023/03/27 03:28:35;;;;;;;7.32;2.38;;;6.60;99.90;;;;;;4922141;29;20111;-72
2023/03/27 03:31:04;;;;;;;10.68;2.45;;;6.60;99.90;;;;;;4923077;29;20389;-72
2023/03/27 03:33:30;;;;;;;11.93;2.40;;;6.60;99.90;;;;;;4929753;29;20031;-72
2023/03/27 03:36:00;;;;;;;10.32;2.72;;;6.50;99.90;;;;;;4925467;29;20028;-72
2023/03/27 03:38:28;;;;;;;6.47;2.33;;;6.50;99.90;;;;;;4922864;29;20133;-72
2023/03/27 03:40:58;;;;;;;19.17;2.67;;;6.50;99.90;;;;;;4929183;29;20035;-72
2023/03/27 03:43:28;;;;;;;11.30;2.75;;;6.50;99.90;;;;;;4936814;28;20028;-72
2023/03/27 03:45:54;;;;;;;13.15;2.63;;;6.40;99.90;;;;;;4934427;29;20050;-72
2023/03/27 03:48:21;;;;;;;12.02;2.95;;;6.40;99.90;;;;;;4925825;29;20038;-72
2023/03/27 03:50:48;;;;;;;14.27;3.35;;;6.40;99.90;;;;;;4927546;29;20035;-72
2023/03/27 03:53:16;;;;;;;15.07;2.60;;;6.40;99.90;;;;;;4924221;29;20035;-72
2023/03/27 03:55:42;;;;;;;7.78;2.80;;;6.30;99.90;;;;;;4930099;29;20469;-72
2023/03/27 03:58:08;;;;;;;14.45;2.97;;;6.30;99.90;;;;;;4931192;29;20543;-72
2023/03/27 04:00:38;;;;;;;10.30;2.80;;;6.30;99.90;;;;;;4930035;29;20023;-72
2023/03/27 04:03:06;;;;;;;9.88;2.50;;;6.30;99.90;;;;;;4925873;29;20025;-72
2023/03/27 04:05:32;;;;;;;7.90;2.20;;;6.30;99.90;;;;;;4929077;29;20028;-72
2023/03/27 04:07:58;;;;;;;14.40;2.85;;;6.30;99.90;;;;;;4930386;29;20028;-72
2023/03/27 04:10:28;;;;;;;13.35;2.42;;;6.30;99.90;;;;;;4926296;29;20187;-73
2023/03/27 04:12:54;;;;;;;10.93;2.72;;;6.30;99.90;;;;;;4926151;29;20036;-72
2023/03/27 04:15:20;;;;;;;8.77;2.55;;;6.20;99.90;;;;;;4929127;29;20020;-72
2023/03/27 04:17:49;;;;;;;8.18;2.08;;;6.20;99.90;;;;;;4924640;29;20175;-72
2023/03/27 04:20:16;;;;;;;17.35;2.90;;;6.10;99.90;;;;;;4930101;29;20016;-72
2023/03/27 04:22:46;;;;;;;15.80;3.33;;;6.10;99.90;;;;;;4936666;29;20539;-72
2023/03/27 04:25:14;;;;;;;6.13;2.42;;;6.10;99.90;;;;;;4925822;29;20038;-72
2023/03/27 04:27:42;;;;;;;7.82;2.30;;;6.10;99.90;;;;;;4926411;29;20016;-71
2023/03/27 04:30:09;;;;;;;10.93;2.65;;;6.20;99.90;;;;;;4931784;29;20027;-72
2023/03/27 04:32:35;;;;;;;12.73;3.55;;;6.20;99.90;;;;;;4923627;29;20473;-72
2023/03/27 04:35:01;;;;;;;7.95;2.10;;;6.20;99.90;;;;;;4927837;28;20063;-72
2023/03/27 04:37:28;;;;;;;10.00;2.42;;;6.20;99.90;;;;;;4927779;29;20666;-72
2023/03/27 04:39:53;;;;;;;10.98;2.88;;;6.30;99.90;;;;;;4931294;29;20039;-72
2023/03/27 04:42:22;;;;;;;13.23;3.03;;;6.30;99.90;;;;;;4923656;29;20503;-72
2023/03/27 04:44:51;;;;;;;8.15;3.10;;;6.20;99.90;;;;;;4924171;29;20068;-72
2023/03/27 04:47:19;;;;;;;10.30;2.80;;;6.30;99.90;;;;;;4924869;29;20022;-72
2023/03/27 04:49:50;;;;;;;9.65;2.88;;;6.30;99.90;;;;;;4918062;28;20035;-72
2023/03/27 04:52:18;;;;;;;7.38;2.63;;;6.30;99.90;;;;;;4923559;29;20492;-72
2023/03/27 04:54:45;;;;;;;6.97;2.58;;;6.30;99.90;;;;;;4934231;29;20032;-72
2023/03/27 04:57:11;;;;;;;5.43;2.10;;;6.30;99.90;;;;;;4931001;29;20067;-72
2023/03/27 04:59:37;;;;;;;10.50;2.35;;;6.30;99.90;;;;;;4926057;29;20031;-72
2023/03/27 05:02:05;;;;;;;9.65;2.72;;;6.30;99.90;;;;;;4924151;29;20028;-72
2023/03/27 05:04:31;;;;;;;12.10;2.90;;;6.30;99.90;;;;;;4932527;29;20028;-72
2023/03/27 05:06:58;;;;;;;12.75;2.72;;;6.30;99.90;;;;;;4926678;29;20035;-72
2023/03/27 05:09:25;;;;;;;10.13;3.15;;;6.30;99.90;;;;;;4931573;29;20048;-72
2023/03/27 05:11:51;;;;;;;9.60;3.00;;;6.30;99.90;;;;;;4929635;29;20098;-72
2023/03/27 05:14:18;;;;;;;9.02;2.85;;;6.20;99.90;;;;;;4923970;29;20036;-72
2023/03/27 05:16:43;;;;;;;10.98;3.35;;;6.30;99.90;;;;;;4931032;29;20023;-72
2023/03/27 05:19:10;;;;;;;16.80;3.20;;;6.20;99.90;;;;;;4926692;29;20123;-72
2023/03/27 05:21:36;;;;;;;11.10;2.30;;;6.20;99.90;;;;;;4928212;29;20036;-72
2023/03/27 05:24:02;;;;;;;5.28;2.63;;;6.20;99.90;;;;;;4932057;29;20031;-72
2023/03/27 05:26:28;;;;;;;6.82;2.33;;;6.20;99.90;;;;;;4928552;29;20026;-72
2023/03/27 05:28:54;;;;;;;10.45;2.72;;;6.20;99.90;;;;;;4938114;29;20063;-71
2023/03/27 05:31:24;;;;;;;11.05;2.72;;;6.10;99.90;;;;;;4926318;29;20020;-72
2023/03/27 05:33:51;;;;;;;7.38;2.50;;;6.10;99.90;;;;;;4933984;29;20068;-71
2023/03/27 05:36:17;;;;;;;6.97;2.85;;;6.20;99.90;;;;;;4932040;28;20031;-71
2023/03/27 05:38:43;;;;;;;6.95;3.13;;;6.20;99.90;;;;;;4925883;29;20040;-72
2023/03/27 05:41:09;;;;;;;9.93;2.50;;;6.20;99.90;;;;;;4928769;29;20034;-72
2023/03/27 05:43:35;;;;;;;6.75;2.38;;;6.20;99.90;;;;;;4926234;29;20027;-71
2023/03/27 05:46:02;;;;;;;6.88;2.97;;;6.20;99.90;;;;;;4930704;29;20031;-71
2023/03/27 05:48:28;;;;;;;8.48;3.30;;;6.20;99.90;;;;;;4925694;29;20365;-72
2023/03/27 05:50:54;;;;;;;9.40;2.80;;;6.30;99.90;;;;;;4929970;29;20070;-71
2023/03/27 05:53:20;;;;;;;13.55;3.05;;;6.30;99.90;;;;;;4932122;29;20032;-71
2023/03/27 05:55:46;;;;;;;12.25;2.90;;;6.30;99.90;;;;;;4928786;29;20024;-71
2023/03/27 05:58:12;;;;;;;8.75;3.30;;;6.30;99.90;;;;;;4932729;29;20046;-70
2023/03/27 06:00:41;;;;;;;13.48;3.90;;;6.30;99.90;;;;;;4925673;29;20035;-70
2023/03/27 06:03:09;;;;;;;8.63;2.90;;;6.30;99.90;;;;;;4932057;29;20027;-70
2023/03/27 06:05:36;;;;;;;12.70;3.00;;;6.30;99.90;;;;;;4927811;29;20024;-70
2023/03/27 06:08:02;;;;;;;9.00;3.70;;;6.30;99.90;;;;;;4928566;29;20039;-70
2023/03/27 06:10:29;;;;;;;8.73;2.72;;;6.30;99.90;;;;;;4933853;29;20027;-69
2023/03/27 06:13:07;;;;;;;8.43;3.38;;;6.30;99.90;;;;;;4933584;29;20024;-70
2023/03/27 06:15:34;;;;;;;8.13;2.80;;;6.30;99.90;;;;;;4931429;29;20563;-70
2023/03/27 06:18:00;;;;;;;10.57;3.20;;;6.20;99.90;;;;;;4922969;29;20488;-69
2023/03/27 06:20:26;;;;;;;9.43;2.70;;;6.20;99.90;;;;;;4937889;29;20097;-70
2023/03/27 06:22:55;;;;;;;6.25;2.88;;;6.20;99.90;;;;;;4938062;29;20548;-70
2023/03/27 06:25:22;;;;;;;6.95;2.58;;;6.20;99.90;;;;;;4924457;29;20035;-70
2023/03/27 06:27:49;;;;;;;11.57;3.35;;;6.20;99.90;;;;;;4925802;29;20060;-69
2023/03/27 06:30:17;;;;;;;9.80;3.03;;;6.20;99.90;;;;;;4924570;29;20042;-70
2023/03/27 06:32:52;;;;;;;11.05;3.25;;;6.20;99.90;;;;;;4929032;29;20040;-70
2023/03/27 06:35:20;;;;;;;9.82;3.28;;;6.30;99.90;;;;;;4922788;29;20469;-70
2023/03/27 06:37:49;;;;;;;9.50;3.50;;;6.20;99.90;;;;;;4932842;29;20365;-70
2023/03/27 06:40:21;;;;;;;14.32;3.40;;;6.30;99.90;;;;;;4926350;29;20036;-70
2023/03/27 06:42:53;;;;;;;8.40;3.23;;;6.30;99.90;;;;;;4928928;29;20019;-70
2023/03/27 06:45:21;;;;;;;7.60;3.17;;;6.40;99.90;;;;;;4928276;29;20546;-70
2023/03/27 06:47:51;;;;;;;7.10;3.22;;;6.30;99.90;;;;;;4922638;29;20114;-71
2023/03/27 06:50:18;;;;;;;8.07;3.13;;;6.30;99.90;;;;;;4929112;29;20107;-69
2023/03/27 06:52:47;;;;;;;6.30;2.45;;;6.40;99.90;;;;;;4927334;29;20028;-70
2023/03/27 06:55:17;;;;;;;7.43;3.00;;;6.50;99.90;;;;;;4929312;29;20480;-71
2023/03/27 06:57:48;;;;;;;9.10;2.63;;;6.40;99.90;;;;;;4924062;29;20020;-70
2023/03/27 07:00:18;;;;;;;7.57;2.90;;;6.30;99.90;;;;;;4922719;29;20027;-70
2023/03/27 07:02:47;;;;;;;4.32;1.90;;;6.20;99.90;;;;;;4923949;29;20024;-68
2023/03/27 07:05:13;;;;;;;4.55;1.85;;;6.10;99.90;;;;;;4929455;29;20024;-69
2023/03/27 07:07:40;;;;;;;5.63;2.75;;;6.20;99.90;;;;;;4927154;29;20032;-69
2023/03/27 07:10:07;;;;;;;4.07;2.08;;;6.10;99.90;;;;;;4929515;29;20028;-69
2023/03/27 07:12:33;;;;;;;5.90;2.28;;;6.10;99.90;;;;;;4933402;29;20038;-69
2023/03/27 07:14:59;;;;;;;5.13;2.17;;;6.20;99.90;;;;;;4922630;29;20016;-68
2023/03/27 07:17:25;;;;;;;6.28;1.77;;;6.30;99.90;;;;;;4924807;29;20084;-68
2023/03/27 07:19:51;;;;;;;4.80;1.98;;;6.40;99.90;;;;;;4923849;29;20044;-69
2023/03/27 07:22:16;;;;;;;6.00;1.75;;;6.50;99.90;;;;;;4926648;29;20099;-70
2023/03/27 07:24:42;;;;;;;5.35;2.15;;;6.50;99.90;;;;;;4923147;29;20068;-69
2023/03/27 07:27:08;;;;;;;6.20;2.33;;;6.60;99.90;;;;;;4923843;29;20032;-69
2023/03/27 07:29:35;;;;;;;5.05;2.35;;;6.60;99.90;;;;;;4925707;28;20115;-69
2023/03/27 07:32:02;;;;;;;7.70;2.15;;;6.60;99.90;;;;;;4906319;29;20492;-68
2023/03/27 07:34:28;;;;;;;3.67;2.50;;;6.60;99.90;;;;;;4915397;29;20016;-70
2023/03/27 07:36:56;;;;;;;6.97;2.80;;;6.70;99.90;;;;;;4924005;29;20058;-69
2023/03/27 07:39:22;;;;;;;8.02;3.47;;;6.70;99.90;;;;;;4925181;29;20050;-70
2023/03/27 07:41:48;;;;;;;6.70;3.40;;;6.80;99.90;;;;;;4920471;29;20024;-69
2023/03/27 07:44:13;;;;;;;7.00;2.78;;;6.80;99.90;;;;;;4920241;29;20039;-70
2023/03/27 07:46:40;;;;;;;8.35;2.88;;;6.80;99.90;;;;;;4919695;29;20048;-71
2023/03/27 07:49:07;;;;;;;11.82;3.10;;;6.80;99.90;;;;;;4921403;29;20436;-69
2023/03/27 07:51:33;;;;;;;8.20;3.00;;;6.90;99.90;;;;;;4921397;29;20083;-69
2023/03/27 07:54:02;;;;;;;4.78;3.17;;;7.00;99.90;;;;;;4916134;29;20028;-69
2023/03/27 07:56:29;;;;;;;7.93;3.28;;;7.10;99.90;;;;;;4920595;29;20030;-70
2023/03/27 07:58:54;;;;;;;8.40;2.78;;;7.20;99.90;;;;;;4921348;29;20665;-71
2023/03/27 08:01:20;;;;;;;9.05;2.63;;;7.40;99.90;;;;;;4920612;29;20035;-70
2023/03/27 08:03:47;;;;;;;6.15;2.58;;;7.40;99.90;;;;;;4923463;29;20099;-70
2023/03/27 08:06:13;;;;;;;6.80;2.60;;;7.50;99.90;;;;;;4917543;29;20028;-70
2023/03/27 08:08:38;;;;;;;3.78;2.25;;;7.40;99.90;;;;;;4919924;29;20087;-70
2023/03/27 08:11:05;;;;;;;10.18;2.80;;;7.50;99.90;;;;;;4922018;29;20024;-70
2023/03/27 08:13:31;;;;;;;5.55;2.50;;;7.70;99.90;;;;;;4923147;29;20035;-70
2023/03/27 08:16:13;;;;;;;4.05;2.13;;;7.80;99.90;;;;;;4923216;29;20020;-70
2023/03/27 08:18:39;;;;;;;7.18;2.83;;;8.00;99.90;;;;;;4923603;29;20122;-70
2023/03/27 08:21:07;;;;;;;8.00;2.55;;;8.10;99.90;;;;;;4919895;29;20023;-70
2023/03/27 08:23:34;;;;;;;4.65;2.25;;;8.30;99.90;;;;;;4920154;29;20034;-70
2023/03/27 08:26:00;;;;;;;6.53;2.22;;;8.30;99.90;;;;;;4918716;29;20035;-70
2023/03/27 08:28:31;;;;;;;9.30;2.58;;;8.50;99.90;;;;;;4920813;29;20039;-70
2023/03/27 08:30:57;;;;;;;9.10;2.58;;;8.60;99.90;;;;;;4929259;29;20031;-70
2023/03/27 08:33:26;;;;;;;9.95;2.38;;;8.70;99.90;;;;;;4925044;29;20094;-71
2023/03/27 08:35:52;;;;;;;10.38;2.33;;;8.80;99.90;;;;;;4921361;29;20521;-70
2023/03/27 08:38:18;;;;;;;6.03;2.00;;;9.00;99.90;;;;;;4928428;29;20047;-70
2023/03/27 08:40:50;;;;;;;9.20;2.50;;;9.00;99.90;;;;;;4921718;29;20477;-74
2023/03/27 08:43:20;;;;;;;12.45;2.55;;;9.10;99.90;;;;;;4922023;29;20063;-70
2023/03/27 08:45:55;;;;;;;8.73;2.35;;;9.10;99.90;;;;;;4927055;29;20039;-69
2023/03/27 08:48:32;;;;;;;8.60;2.28;;;9.20;99.90;;;;;;4925448;29;20016;-70
2023/03/27 08:51:18;;;;;;;8.93;2.40;;;9.40;99.90;;;;;;4926550;29;20130;-70
2023/03/27 08:53:50;;;;;;;15.18;2.25;;;9.40;99.90;;;;;;4922951;29;20072;-70
2023/03/27 08:56:19;;;;;;;7.13;1.92;;;9.50;99.90;;;;;;4921905;29;20074;-72
2023/03/27 08:58:46;;;;;;;6.90;1.85;;;9.60;99.90;;;;;;4925563;29;20054;-70
2023/03/27 09:01:17;;;;;;;8.50;1.95;;;9.60;99.90;;;;;;4924569;29;20028;-70
2023/03/27 09:04:03;;;;;;;10.02;2.42;;;9.60;99.90;;;;;;4924335;29;20024;-70
2023/03/27 09:06:39;;;;;;;8.45;2.17;;;9.70;99.90;;;;;;4931405;28;20047;-70
2023/03/27 09:09:05;;;;;;;9.88;2.72;;;9.70;99.90;;;;;;4921955;29;20500;-70
2023/03/27 09:12:04;;;;;;;13.20;2.50;;;9.60;99.90;;;;;;4923302;29;20091;-70
2023/03/27 09:14:36;;;;;;;8.80;2.67;;;9.40;99.90;;;;;;4924860;29;20124;-70
2023/03/27 09:17:26;;;;;;;9.65;2.40;;;9.20;99.90;;;;;;4920666;29;20409;-70
2023/03/27 09:20:09;;;;;;;7.38;1.75;;;9.00;99.90;;;;;;4928134;29;20401;-69
2023/03/27 09:22:43;;;;;;;4.18;1.90;;;8.70;99.90;;;;;;4923610;29;20032;-69
2023/03/27 09:25:49;;;;;;;11.23;2.38;;;8.60;99.90;;;;;;4924022;29;20020;-71
2023/03/27 09:28:27;;;;;;;6.28;2.17;;;8.50;99.90;;;;;;4921048;29;20505;-70
2023/03/27 09:30:53;;;;;;;7.28;2.50;;;8.50;99.90;;;;;;4926282;29;20067;-72
2023/03/27 09:33:18;;;;;;;9.10;2.42;;;8.80;99.90;;;;;;4921149;29;20044;-69
2023/03/27 09:35:45;;;;;;;8.88;2.17;;;9.10;99.90;;;;;;4926311;29;20028;-70
2023/03/27 09:38:33;;;;;;;10.48;2.35;;;9.10;99.90;;;;;;4922015;29;20048;-70
2023/03/27 09:41:12;;;;;;;10.05;2.17;;;9.40;99.90;;;;;;4919752;29;20040;-71
2023/03/27 09:43:42;;;;;;;5.03;1.88;;;9.70;99.90;;;;;;4924274;29;20062;-71
2023/03/27 09:46:10;;;;;;;8.63;2.33;;;10.00;99.90;;;;;;4923038;29;20027;-72
2023/03/27 09:48:45;;;;;;;7.18;2.17;;;10.30;99.90;;;;;;4923016;29;20042;-71
2023/03/27 09:51:48;;;;;;;10.02;1.70;;;10.50;99.90;;;;;;4925380;29;20028;-70
2023/03/27 09:54:17;;;;;;;8.25;1.60;;;10.50;99.90;;;;;;4921086;29;20446;-71
2023/03/27 09:56:50;;;;;;;8.95;1.48;;;10.20;99.90;;;;;;4923273;29;20027;-70
2023/03/27 09:59:27;;;;;;;6.60;1.10;;;9.80;99.90;;;;;;4923893;29;20039;-69
2023/03/27 10:01:58;;;;;;;4.38;0.90;;;9.40;99.90;;;;;;4922864;29;20023;-72
2023/03/27 10:04:26;;;;;;;3.80;1.25;;;9.10;99.90;;;;;;4920485;29;20378;-70
2023/03/27 10:07:04;;;;;;;10.38;0.80;;;9.00;99.90;;;;;;4924113;29;20099;-69
2023/03/27 10:09:37;;;;;;;2.30;0.70;;;8.70;99.90;;;;;;4921201;29;20032;-69
2023/03/27 10:12:08;;;;;;;3.28;0.88;;;8.50;99.90;;;;;;4922166;29;20032;-69
2023/03/27 10:14:46;;;;;;;2.60;0.57;;;8.50;99.90;;;;;;4922065;29;20020;-70
2023/03/27 10:17:23;;;;;;;2.92;0.90;;;8.80;99.90;;;;;;4919995;29;20507;-70
2023/03/27 10:19:53;;;;;;;1.20;0.68;;;8.90;99.90;;;;;;4923317;29;20028;-72
2023/03/27 10:22:28;;;;;;;3.03;0.75;;;9.10;99.90;;;;;;4922175;29;20508;-71
2023/03/27 10:24:59;;;;;;;4.65;1.10;;;9.20;99.90;;;;;;4922775;29;20039;-71
2023/03/27 10:27:30;;;;;;;4.03;0.70;;;9.50;99.90;;;;;;4920746;29;20087;-71
2023/03/27 10:29:56;;;;;;;3.30;0.73;;;9.80;99.90;;;;;;4924265;29;20031;-71
2023/03/27 10:32:45;;;;;;;4.80;0.68;;;10.00;99.90;;;;;;4924674;29;20035;-71
2023/03/27 10:35:33;;;;;;;4.60;1.05;;;10.10;99.90;;;;;;4923124;29;20397;-71
2023/03/27 10:38:06;;;;;;;4.05;0.93;;;10.20;99.90;;;;;;4919996;29;20107;-74
2023/03/27 10:40:33;;;;;;;;;;;10.30;99.90;;;;;;4924817;29;20496;-71
2023/03/27 10:43:04;;;;;;;4.82;0.80;;;10.50;99.90;;;;;;4922757;29;19919;-71
2023/03/27 10:45:31;;;;;;;7.72;1.30;;;10.70;99.90;;;;;;4923126;29;20059;-71
2023/03/27 10:48:00;;;;;;;3.90;1.42;;;10.90;99.90;;;;;;4923642;29;20043;-73
2023/03/27 10:50:40;;;;;;;5.78;1.02;;;11.00;99.90;;;;;;4924609;29;20544;-71
2023/03/27 10:53:42;;;;;;;7.70;0.98;;;11.10;99.90;;;;;;4922926;29;20024;-71
2023/03/27 10:56:21;;;;;;;6.50;0.90;;;11.10;99.90;;;;;;4918168;29;20024;-71
2023/03/27 10:58:58;;;;;;;8.68;1.20;;;11.00;99.90;;;;;;4920893;29;20088;-71
2023/03/27 11:01:30;;;;;;;2.72;0.70;;;10.80;99.90;;;;;;4923191;29;20469;-72
2023/03/27 11:04:07;;;;;;;5.93;0.73;;;10.60;99.90;;;;;;4920926;29;20023;-72
2023/03/27 11:06:38;;;;;;;3.30;0.47;;;10.60;99.90;;;;;;4923522;29;20130;-71
2023/03/27 11:09:31;;;;;;;2.05;0.40;;;10.60;99.90;;;;;;4921232;29;20035;-72
2023/03/27 11:12:06;;;;;;;1.48;0.30;;;10.50;99.90;;;;;;4923259;29;20039;-71
2023/03/27 11:15:03;;;;;;;3.80;0.60;;;10.50;99.90;;;;;;4922631;29;20036;-71
2023/03/27 11:17:37;;;;;;;2.40;0.60;;;10.50;99.90;;;;;;4921791;29;20031;-71
2023/03/27 11:20:10;;;;;;;2.28;0.50;;;10.50;99.90;;;;;;4920059;29;20036;-71
2023/03/27 11:22:46;;;;;;;6.38;1.00;;;10.60;99.90;;;;;;4922807;29;20092;-70
2023/03/27 11:25:32;;;;;;;1.75;0.47;;;10.70;99.90;;;;;;4921395;29;20433;-71
2023/03/27 11:28:18;;;;;;;6.15;0.80;;;10.90;99.90;;;;;;4917455;29;20027;-71
2023/03/27 11:30:55;;;;;;;3.05;0.93;;;11.20;99.90;;;;;;4918878;29;20031;-72
2023/03/27 11:33:43;;;;;;;3.22;1.25;;;11.40;99.90;;;;;;4918569;29;20035;-71
2023/03/27 11:36:41;;;;;;;3.83;0.60;;;11.60;99.90;;;;;;4923793;29;20027;-71
2023/03/27 11:39:14;;;;;;;4.43;1.10;;;11.70;99.90;;;;;;4919538;29;20055;-71
2023/03/27 11:41:44;;;;;;;2.97;0.63;;;11.90;99.90;;;;;;4919256;29;20031;-71
2023/03/27 11:44:10;;;;;;;4.18;0.93;;;12.00;99.90;;;;;;4918220;29;20082;-72
2023/03/27 11:47:06;;;;;;;14.13;2.15;;;12.00;99.90;;;;;;4919933;29;20799;-72
2023/03/27 11:50:15;;;;;;;29.15;3.03;;;11.70;99.90;;;;;;4917227;29;20047;-71
2023/03/27 11:52:51;;;;;;;17.38;2.85;;;11.30;99.90;;;;;;4925511;28;20040;-72
2023/03/27 11:55:36;;;;;;;27.80;2.83;;;10.90;99.90;;;;;;4918708;29;20035;-71
2023/03/27 11:58:13;;;;;;;31.67;3.50;;;10.60;99.90;;;;;;4923807;29;20046;-72
2023/03/27 12:00:57;;;;;;;10.35;1.15;;;10.40;99.90;;;;;;4913893;29;20421;-71
2023/03/27 12:03:48;;;;;;;17.25;1.77;;;10.10;99.90;;;;;;4920613;29;20043;-73
2023/03/27 12:06:17;;;;;;;9.82;1.52;;;10.20;99.90;;;;;;4922210;29;20388;-72
2023/03/27 12:09:02;;;;;;;5.15;0.90;;;10.70;99.90;;;;;;4922418;29;20071;-71
2023/03/27 12:11:28;;;;;;;3.53;1.02;;;11.10;99.90;;;;;;4920896;29;20051;-71
2023/03/27 12:14:33;;;;;;;3.33;1.00;;;11.40;99.90;;;;;;4917161;29;20035;-71
2023/03/27 12:17:17;;;;;;;3.58;0.90;;;11.50;99.90;;;;;;4921812;28;20040;-71
2023/03/27 12:20:10;;;;;;;3.75;0.80;;;11.70;99.90;;;;;;4916551;29;20040;-72
2023/03/27 12:23:20;;;;;;;3.55;1.13;;;12.10;99.90;;;;;;4922421;29;20036;-72
2023/03/27 12:25:47;;;;;;;6.30;1.52;;;12.20;99.90;;;;;;4918741;29;20035;-71
2023/03/27 12:28:27;;;;;;;7.70;1.40;;;12.10;99.90;;;;;;4918324;29;20036;-71
2023/03/27 12:31:30;;;;;;;8.27;1.00;;;11.70;99.90;;;;;;4920882;29;20036;-72
2023/03/27 12:34:00;;;;;;;4.25;1.10;;;11.60;99.90;;;;;;4920994;29;20038;-70
2023/03/27 12:36:29;;;;;;;5.57;1.00;;;11.60;99.90;;;;;;4920337;28;20035;-71
2023/03/27 12:38:56;;;;;;;3.67;1.20;;;11.60;99.90;;;;;;4922346;28;20070;-71
2023/03/27 12:41:24;;;;;;;5.78;1.17;;;11.70;99.90;;;;;;4917119;29;20071;-71
2023/03/27 12:43:56;;;;;;;5.70;1.10;;;11.70;99.90;;;;;;4917705;29;20504;-72
2023/03/27 12:46:27;;;;;;;4.10;0.98;;;11.90;99.90;;;;;;4920334;29;20030;-71
2023/03/27 12:49:06;;;;;;;3.58;1.33;;;11.70;99.90;;;;;;4918984;29;20145;-71
2023/03/27 12:52:03;;;;;;;2.35;0.60;;;11.50;99.90;;;;;;4919030;29;20028;-71
2023/03/27 12:54:34;;;;;;;4.75;0.80;;;11.20;99.90;;;;;;4921123;29;20031;-71
2023/03/27 12:57:12;;;;;;;3.78;0.57;;;11.00;99.90;;;;;;4922565;29;20158;-71
2023/03/27 12:59:47;;;;;;;4.97;1.00;;;10.90;99.90;;;;;;4918231;29;20040;-71
2023/03/27 13:03:01;;;;;;;2.20;0.70;;;10.80;99.90;;;;;;4922230;29;20055;-72
2023/03/27 13:05:42;;;;;;;4.88;0.57;;;10.70;99.90;;;;;;4943927;28;20448;-71
2023/03/27 13:08:16;;;;;;;3.65;0.80;;;10.70;99.90;;;;;;4919120;29;20028;-71
2023/03/27 13:11:11;;;;;;;3.50;0.82;;;10.90;99.90;;;;;;4922503;29;20041;-71
2023/03/27 13:13:52;;;;;;;1.88;0.57;;;11.10;99.90;;;;;;4920178;29;20034;-71
2023/03/27 13:16:41;;;;;;;4.32;1.02;;;11.20;99.90;;;;;;4922553;29;20074;-71
2023/03/27 13:19:19;;;;;;;3.88;0.68;;;11.50;99.90;;;;;;4922184;29;20501;-71
2023/03/27 13:22:06;;;;;;;1.90;0.50;;;11.50;99.90;;;;;;4922279;29;20024;-71